BIENTÔT MET'MAP
version 2.0 !

Prévue avant fin octobre,
la nouvelle version sera
plus belle, plus complète
et hébergée sur un serveur
3 fois plus puissant...
et toujours gratuite !


Pas compatible ?
Essayez la version Mobile !

SE CONNECTER : | S'inscrire | Disclaimer | Découvrir Orbifly |
Code OACI :

TAF - LTAH Afyon AB - 29 May 2020 10:27 UTC - Data Source NOAA   


- Altitude de l'aérodrome : 3310 ft
- Code IATA : AFY
- Pas de NOTAMs connus.


LTAH - Afyon AB

Dernier METAR connu : 2015/08/06 13:26 LTAH 061326Z 35014KT 9999 FEW025CB BKN030 21/15 Q1014 RETSRA RMK RWY13 36011KT
TAF TAF LTAH
Valide du 29 à 06h jusqu'au 29 à 15h UTC


290440Z 2906/2915 29010KT 9999 SCT040
BECMG 2909/2912 -SHRA BKN030 BKN100
PROB30 2912/2915 -TSRA FEW025CB BKN030

Source NOAA


MET'MAP, la Météo Aéronautique d'un coup d'oeil ! - Copyright ORBIFLY Décembre 2007

Développement & Programmation : Alexandra Zaïnal
Co-Développement : Marc-Olivier Méhu
Soutien technique & logistique : Manuel Goepfert
Conception & Financement : Baudouin d'Aumeries